Time;durP1;ratioP1;P1;durP2;ratioP2;P2;SDS_P1;SDS_P2;PMS_P1;PMS_P2;Temp;Humidity;BMP_temperature;BMP_pressure;BME280_temperature;BME280_humidity;BME280_pressure;Samples;Min_cycle;Max_cycle;Signal;HPM_P1;HPM_P2
2020/12/04 00:01:12;;;;;;;19.70;12.82;;;;;;;;;;5038350;28;20780;-82
2020/12/04 00:03:57;;;;;;;20.23;12.98;;;;;;;;;;5061064;28;20025;-81
2020/12/04 00:06:42;;;;;;;19.80;12.80;;;;;;;;;;5036388;28;20082;-82
2020/12/04 00:09:27;;;;;;;22.08;12.93;;;;;;;;;;5024859;28;20572;-82
2020/12/04 00:12:12;;;;;;;20.65;13.10;;;;;;;;;;5050029;28;20388;-82
2020/12/04 00:14:58;;;;;;;21.35;13.95;;;;;;;;;;5040981;28;20496;-83
2020/12/04 00:17:43;;;;;;;17.77;11.98;;;;;;;;;;5034806;28;20376;-83
2020/12/04 00:20:28;;;;;;;21.17;12.85;;;;;;;;;;5045167;28;20568;-84
2020/12/04 00:23:13;;;;;;;19.30;12.25;;;;;;;;;;5036765;28;20025;-83
2020/12/04 00:26:00;;;;;;;18.10;11.90;;;;;;;;;;5045510;28;20028;-82
2020/12/04 00:28:45;;;;;;;20.30;13.57;;;;;;;;;;5037558;28;20025;-83
2020/12/04 00:31:31;;;;;;;25.15;13.00;;;;;;;;;;5037420;28;20107;-84
2020/12/04 00:34:16;;;;;;;22.65;14.60;;;;;;;;;;5031142;28;20021;-84
2020/12/04 00:37:02;;;;;;;23.13;13.40;;;;;;;;;;5042663;28;20679;-83
2020/12/04 00:39:47;;;;;;;21.05;13.40;;;;;;;;;;5037555;28;20033;-84
2020/12/04 00:42:32;;;;;;;20.20;13.90;;;;;;;;;;5042316;28;20036;-83
2020/12/04 00:45:17;;;;;;;21.25;13.18;;;;;;;;;;5044025;28;20056;-84
2020/12/04 00:48:02;;;;;;;19.92;12.80;;;;;;;;;;5040006;28;20032;-83
2020/12/04 00:50:48;;;;;;;20.83;13.57;;;;;;;;;;5041785;28;20032;-83
2020/12/04 00:53:33;;;;;;;21.55;13.02;;;;;;;;;;5039000;28;20196;-84
2020/12/04 00:56:18;;;;;;;17.77;12.00;;;;;;;;;;5048403;28;20411;-84
2020/12/04 00:59:06;;;;;;;18.73;12.48;;;;;;;;;;5047270;28;20028;-84
2020/12/04 01:01:51;;;;;;;20.08;12.95;;;;;;;;;;5050873;28;20029;-85
2020/12/04 01:04:37;;;;;;;20.33;13.27;;;;;;;;;;5042923;28;20021;-85
2020/12/04 01:07:22;;;;;;;23.35;14.02;;;;;;;;;;5049102;28;20021;-84
2020/12/04 01:10:07;;;;;;;21.30;12.98;;;;;;;;;;5045685;28;20034;-84
2020/12/04 01:12:52;;;;;;;20.73;12.50;;;;;;;;;;5049826;28;20028;-83
2020/12/04 01:15:38;;;;;;;20.40;13.23;;;;;;;;;;5043011;28;20036;-82
2020/12/04 01:18:23;;;;;;;19.83;13.10;;;;;;;;;;5046742;28;20028;-83
2020/12/04 01:21:11;;;;;;;20.95;11.75;;;;;;;;;;5045345;28;20486;-83
2020/12/04 01:23:56;;;;;;;18.17;11.25;;;;;;;;;;5050897;28;20028;-82
2020/12/04 01:26:41;;;;;;;19.02;12.95;;;;;;;;;;5043308;28;20044;-83
2020/12/04 01:29:27;;;;;;;20.33;13.25;;;;;;;;;;5044623;28;20031;-83
2020/12/04 01:32:12;;;;;;;21.05;13.00;;;;;;;;;;5044967;28;20029;-83
2020/12/04 01:34:57;;;;;;;21.15;12.70;;;;;;;;;;5042635;28;20086;-84
2020/12/04 01:37:42;;;;;;;19.98;13.02;;;;;;;;;;5045538;28;20031;-83
2020/12/04 01:40:28;;;;;;;19.95;11.82;;;;;;;;;;5038786;28;20047;-84
2020/12/04 01:43:13;;;;;;;19.90;12.70;;;;;;;;;;5045693;28;20110;-84
2020/12/04 01:45:59;;;;;;;20.90;13.48;;;;;;;;;;5041935;28;20372;-83
2020/12/04 01:48:44;;;;;;;20.67;12.48;;;;;;;;;;5045552;28;20024;-83
2020/12/04 01:51:30;;;;;;;19.73;13.38;;;;;;;;;;5043087;28;20047;-83
2020/12/04 01:54:16;;;;;;;21.85;13.48;;;;;;;;;;5048806;28;20069;-83
2020/12/04 01:57:02;;;;;;;20.77;14.15;;;;;;;;;;5064992;28;20021;-83
2020/12/04 01:59:47;;;;;;;17.73;11.50;;;;;;;;;;5058367;28;20029;-83
2020/12/04 02:02:32;;;;;;;20.45;13.02;;;;;;;;;;5053489;28;20118;-83
2020/12/04 02:05:18;;;;;;;20.60;13.98;;;;;;;;;;5056371;28;20390;-83
2020/12/04 02:08:03;;;;;;;25.10;14.05;;;;;;;;;;5036601;28;20191;-82
2020/12/04 02:10:51;;;;;;;22.63;12.63;;;;;;;;;;5044499;28;20025;-83
2020/12/04 02:13:38;;;;;;;20.50;14.10;;;;;;;;;;5042991;28;20044;-83
2020/12/04 02:16:23;;;;;;;21.27;13.73;;;;;;;;;;5047547;28;20395;-82
2020/12/04 02:19:09;;;;;;;20.35;12.82;;;;;;;;;;5039663;28;20070;-81
2020/12/04 02:21:55;;;;;;;21.95;14.65;;;;;;;;;;5036863;28;20013;-81
2020/12/04 02:24:40;;;;;;;21.45;12.95;;;;;;;;;;5046711;28;20032;-80
2020/12/04 02:27:25;;;;;;;20.88;13.30;;;;;;;;;;5041408;28;20158;-82
2020/12/04 02:30:12;;;;;;;19.83;13.27;;;;;;;;;;5045180;28;20513;-83
2020/12/04 02:32:57;;;;;;;23.60;14.43;;;;;;;;;;5043978;28;20031;-83
2020/12/04 02:35:42;;;;;;;22.73;14.15;;;;;;;;;;5044681;28;20028;-83
2020/12/04 02:38:28;;;;;;;22.48;14.70;;;;;;;;;;5040157;28;20085;-82
2020/12/04 02:41:13;;;;;;;22.00;13.95;;;;;;;;;;5044291;28;20510;-83
2020/12/04 02:43:59;;;;;;;20.33;12.73;;;;;;;;;;5046144;28;20024;-82
2020/12/04 02:46:48;;;;;;;19.23;12.13;;;;;;;;;;5046652;28;20032;-82
2020/12/04 02:49:33;;;;;;;22.33;13.90;;;;;;;;;;5043311;28;20029;-83
2020/12/04 02:52:19;;;;;;;21.40;13.70;;;;;;;;;;5046436;28;20031;-82
2020/12/04 02:55:05;;;;;;;20.42;14.00;;;;;;;;;;5017530;28;20049;-83
2020/12/04 02:57:50;;;;;;;22.95;14.32;;;;;;;;;;5023681;28;20420;-83
2020/12/04 03:00:35;;;;;;;25.52;14.88;;;;;;;;;;5013743;28;20496;-82
2020/12/04 03:03:21;;;;;;;22.70;14.23;;;;;;;;;;5018956;28;20017;-82
2020/12/04 03:06:06;;;;;;;22.25;14.20;;;;;;;;;;5021701;28;20034;-82
2020/12/04 03:08:52;;;;;;;21.50;14.00;;;;;;;;;;5014118;28;20071;-82
2020/12/04 03:11:37;;;;;;;22.92;14.63;;;;;;;;;;5022823;28;20025;-82
2020/12/04 03:14:23;;;;;;;24.45;14.60;;;;;;;;;;5035952;28;20431;-81
2020/12/04 03:17:08;;;;;;;23.33;13.98;;;;;;;;;;5024190;28;20029;-82
2020/12/04 03:19:54;;;;;;;22.65;14.63;;;;;;;;;;5024342;28;20479;-82
2020/12/04 03:22:39;;;;;;;24.90;15.55;;;;;;;;;;5019947;28;20033;-82
2020/12/04 03:25:24;;;;;;;25.50;15.20;;;;;;;;;;5014449;28;20113;-82
2020/12/04 03:28:10;;;;;;;26.75;15.50;;;;;;;;;;5023652;28;20025;-81
2020/12/04 03:30:55;;;;;;;22.83;15.20;;;;;;;;;;5022883;28;20029;-82
2020/12/04 03:33:40;;;;;;;26.35;15.05;;;;;;;;;;5018445;28;20030;-81
2020/12/04 03:36:25;;;;;;;22.60;14.57;;;;;;;;;;5019228;28;20033;-82
2020/12/04 03:39:10;;;;;;;23.77;14.55;;;;;;;;;;5022142;28;20022;-81
2020/12/04 03:41:56;;;;;;;25.42;15.23;;;;;;;;;;5016671;28;20037;-82
2020/12/04 03:44:41;;;;;;;22.23;14.20;;;;;;;;;;5017064;28;20037;-82
2020/12/04 03:47:26;;;;;;;24.13;14.80;;;;;;;;;;5026733;28;20450;-82
2020/12/04 03:50:11;;;;;;;26.27;14.40;;;;;;;;;;5018562;28;20029;-81
2020/12/04 03:52:56;;;;;;;23.42;13.82;;;;;;;;;;5019514;28;20021;-81
2020/12/04 03:55:41;;;;;;;23.58;14.93;;;;;;;;;;5038377;28;20052;-82
2020/12/04 03:58:27;;;;;;;24.02;14.73;;;;;;;;;;5047622;28;20024;-82
2020/12/04 04:01:12;;;;;;;25.25;15.38;;;;;;;;;;5032184;28;20036;-82
2020/12/04 04:03:57;;;;;;;21.20;13.73;;;;;;;;;;5046739;28;20548;-83
2020/12/04 04:06:43;;;;;;;22.98;13.85;;;;;;;;;;5037388;28;20064;-82
2020/12/04 04:09:28;;;;;;;23.90;15.18;;;;;;;;;;5042769;28;20060;-83
2020/12/04 04:12:13;;;;;;;22.92;14.40;;;;;;;;;;5039805;28;20510;-82
2020/12/04 04:14:59;;;;;;;24.33;13.80;;;;;;;;;;5038026;28;20069;-83
2020/12/04 04:17:44;;;;;;;22.52;14.57;;;;;;;;;;5042296;28;20021;-82
2020/12/04 04:20:29;;;;;;;26.55;15.68;;;;;;;;;;5032470;28;20024;-82
2020/12/04 04:23:15;;;;;;;26.50;13.98;;;;;;;;;;5042878;28;20021;-83
2020/12/04 04:26:00;;;;;;;24.00;15.00;;;;;;;;;;5034602;28;20029;-82
2020/12/04 04:28:45;;;;;;;21.35;13.70;;;;;;;;;;5035024;28;20087;-83
2020/12/04 04:31:31;;;;;;;27.52;14.90;;;;;;;;;;5039979;28;20384;-82
2020/12/04 04:34:16;;;;;;;27.30;15.10;;;;;;;;;;5044627;28;20813;-83
2020/12/04 04:37:01;;;;;;;26.05;15.80;;;;;;;;;;5041064;28;20022;-82
2020/12/04 04:39:46;;;;;;;22.13;14.43;;;;;;;;;;5037531;28;20033;-83
2020/12/04 04:42:32;;;;;;;26.02;14.10;;;;;;;;;;5033664;28;20127;-82
2020/12/04 04:45:18;;;;;;;21.17;13.60;;;;;;;;;;5044292;28;20078;-82
2020/12/04 04:48:05;;;;;;;25.13;14.95;;;;;;;;;;5057177;28;20032;-82
2020/12/04 04:50:57;;;;;;;23.27;13.73;;;;;;;;;;5041478;28;20040;-81
2020/12/04 04:53:43;;;;;;;27.30;13.70;;;;;;;;;;5041274;28;20031;-82
2020/12/04 04:56:29;;;;;;;22.23;13.68;;;;;;;;;;5044787;28;20032;-82
2020/12/04 04:59:14;;;;;;;22.85;14.00;;;;;;;;;;5035856;28;20037;-83
2020/12/04 05:01:59;;;;;;;22.75;13.10;;;;;;;;;;5046535;28;20020;-83
2020/12/04 05:04:55;;;;;;;19.85;12.20;;;;;;;;;;5049846;28;20020;-83
2020/12/04 05:07:40;;;;;;;21.65;13.45;;;;;;;;;;5048310;28;20033;-81
2020/12/04 05:10:25;;;;;;;20.60;12.55;;;;;;;;;;5031697;28;20056;-82
2020/12/04 05:13:11;;;;;;;19.55;11.65;;;;;;;;;;5044376;28;20043;-81
2020/12/04 05:15:56;;;;;;;21.15;13.13;;;;;;;;;;5049478;28;20031;-81
2020/12/04 05:18:41;;;;;;;20.30;12.57;;;;;;;;;;5040486;28;20045;-82
2020/12/04 05:21:27;;;;;;;20.85;12.63;;;;;;;;;;5049305;28;20436;-82
2020/12/04 05:24:12;;;;;;;22.83;12.50;;;;;;;;;;5046575;28;20033;-82
2020/12/04 05:26:57;;;;;;;20.85;12.45;;;;;;;;;;5045162;28;20126;-82
2020/12/04 05:29:42;;;;;;;21.70;13.45;;;;;;;;;;5044064;28;20158;-82
2020/12/04 05:32:28;;;;;;;21.83;13.00;;;;;;;;;;5043393;28;20021;-82
2020/12/04 05:35:13;;;;;;;18.98;11.70;;;;;;;;;;5045329;28;20020;-82
2020/12/04 05:38:06;;;;;;;20.92;12.80;;;;;;;;;;5048146;28;20274;-82
2020/12/04 05:41:02;;;;;;;19.20;11.45;;;;;;;;;;5025308;28;20120;-82
2020/12/04 05:43:47;;;;;;;19.92;12.02;;;;;;;;;;5049631;28;20028;-84
2020/12/04 05:46:32;;;;;;;20.02;11.48;;;;;;;;;;5041605;28;20068;-84
2020/12/04 05:49:17;;;;;;;22.30;12.48;;;;;;;;;;5053038;28;20017;-82
2020/12/04 05:52:03;;;;;;;19.90;11.50;;;;;;;;;;5046430;28;20518;-83
2020/12/04 05:54:49;;;;;;;19.58;11.93;;;;;;;;;;5039346;28;20048;-84
2020/12/04 05:57:54;;;;;;;24.88;13.45;;;;;;;;;;5062584;28;20025;-83
2020/12/04 06:00:39;;;;;;;20.95;12.13;;;;;;;;;;5042152;28;20024;-84
2020/12/04 06:03:25;;;;;;;18.33;11.07;;;;;;;;;;5053655;28;20084;-83
2020/12/04 06:06:16;;;;;;;20.55;10.15;;;;;;;;;;5055875;28;20082;-82
2020/12/04 06:09:05;;;;;;;19.75;11.68;;;;;;;;;;5048575;28;20021;-82
2020/12/04 06:11:50;;;;;;;19.58;11.65;;;;;;;;;;5043410;28;20501;-83
2020/12/04 06:14:35;;;;;;;19.17;12.13;;;;;;;;;;5042539;28;20021;-82
2020/12/04 06:17:28;;;;;;;21.17;13.07;;;;;;;;;;5047935;28;20036;-83
2020/12/04 06:20:21;;;;;;;18.00;11.27;;;;;;;;;;5045295;28;20025;-84
2020/12/04 06:23:09;;;;;;;17.80;10.82;;;;;;;;;;5042838;28;20380;-84
2020/12/04 06:25:56;;;;;;;18.40;10.00;;;;;;;;;;5046549;28;20025;-84
2020/12/04 06:28:41;;;;;;;19.98;10.48;;;;;;;;;;5060156;28;20037;-84
2020/12/04 06:31:32;;;;;;;16.50;9.30;;;;;;;;;;5038441;28;20033;-83
2020/12/04 06:34:21;;;;;;;16.73;9.75;;;;;;;;;;5040455;28;20048;-84
2020/12/04 06:37:06;;;;;;;16.33;10.30;;;;;;;;;;5045398;28;20099;-83
2020/12/04 06:39:51;;;;;;;18.88;10.70;;;;;;;;;;5046431;28;20039;-82
2020/12/04 06:42:37;;;;;;;19.90;10.70;;;;;;;;;;5046885;28;20051;-86
2020/12/04 06:45:22;;;;;;;17.20;10.90;;;;;;;;;;5049837;28;20021;-85
2020/12/04 06:48:08;;;;;;;20.90;11.82;;;;;;;;;;5048175;28;20426;-86
2020/12/04 06:50:53;;;;;;;18.77;12.48;;;;;;;;;;5048408;28;20031;-86
2020/12/04 06:53:38;;;;;;;17.30;10.13;;;;;;;;;;5043063;28;20082;-85
2020/12/04 06:56:24;;;;;;;18.23;10.10;;;;;;;;;;5057189;28;20068;-86
2020/12/04 06:59:09;;;;;;;20.52;10.70;;;;;;;;;;5049637;28;20024;-88
2020/12/04 07:01:59;;;;;;;24.23;13.68;;;;;;;;;;5053139;28;20021;-86
2020/12/04 07:04:46;;;;;;;21.05;12.88;;;;;;;;;;5045073;28;20027;-85
2020/12/04 07:07:31;;;;;;;19.33;11.23;;;;;;;;;;5039245;28;20032;-83
2020/12/04 07:10:16;;;;;;;19.15;12.13;;;;;;;;;;5053382;28;20017;-84
2020/12/04 07:13:03;;;;;;;20.70;11.63;;;;;;;;;;5046193;28;20107;-87
2020/12/04 07:15:58;;;;;;;20.17;11.82;;;;;;;;;;5047271;28;20092;-82
2020/12/04 07:18:45;;;;;;;20.40;11.85;;;;;;;;;;5045142;28;20017;-89
2020/12/04 07:21:31;;;;;;;22.00;12.57;;;;;;;;;;5075381;28;20075;-85
2020/12/04 07:24:18;;;;;;;22.60;12.35;;;;;;;;;;5063422;28;20025;-95
2020/12/04 07:27:04;;;;;;;19.92;13.10;;;;;;;;;;5069865;28;20020;-94
2020/12/04 07:29:53;;;;;;;23.08;14.32;;;;;;;;;;5071230;28;20024;-95
2020/12/04 07:35:47;;;;;;;;;;;;;;;;;;;;;
2020/12/04 08:07:50;;;;;;;28.08;15.48;;;;;;;;;;5190912;23;20061;-86
2020/12/04 08:49:34;;;;;;;26.83;15.70;;;;;;;;;;5629997;23;21136;-94
2020/12/04 09:02:42;;;;;;;26.33;14.32;;;;;;;;;;4948509;28;20131;-88
2020/12/04 09:05:35;;;;;;;19.58;12.43;;;;;;;;;;4957179;28;20030;-89
2020/12/04 09:08:42;;;;;;;23.20;13.77;;;;;;;;;;4960160;28;20109;-90
2020/12/04 09:11:30;;;;;;;21.52;13.02;;;;;;;;;;5021873;28;20029;-90
2020/12/04 09:14:16;;;;;;;23.83;13.40;;;;;;;;;;5023484;28;20471;-87
2020/12/04 09:17:01;;;;;;;24.58;13.32;;;;;;;;;;5021619;28;20057;-89
2020/12/04 09:19:54;;;;;;;25.65;14.20;;;;;;;;;;5022221;28;20471;-85
2020/12/04 09:22:40;;;;;;;22.95;14.52;;;;;;;;;;5009695;28;20399;-87
2020/12/04 09:25:25;;;;;;;26.75;13.05;;;;;;;;;;5018239;28;20025;-88
2020/12/04 09:28:10;;;;;;;29.45;14.23;;;;;;;;;;5017647;28;20051;-89
2020/12/04 09:30:57;;;;;;;23.42;14.60;;;;;;;;;;5019382;28;20032;-87
2020/12/04 09:33:45;;;;;;;26.95;13.85;;;;;;;;;;5016767;28;20039;-87
2020/12/04 09:36:30;;;;;;;26.25;15.27;;;;;;;;;;5007347;28;20494;-89
2020/12/04 09:39:16;;;;;;;28.38;13.38;;;;;;;;;;5018450;28;20064;-90
2020/12/04 09:42:10;;;;;;;23.05;12.93;;;;;;;;;;5022729;28;20013;-92
2020/12/04 09:44:55;;;;;;;26.48;12.55;;;;;;;;;;5025792;28;20124;-90
2020/12/04 09:47:41;;;;;;;20.33;13.80;;;;;;;;;;5028953;28;20379;-87
2020/12/04 09:50:26;;;;;;;23.23;13.40;;;;;;;;;;5007946;28;20037;-85
2020/12/04 09:53:12;;;;;;;25.92;11.65;;;;;;;;;;5015374;28;20083;-86
2020/12/04 09:55:57;;;;;;;20.40;12.68;;;;;;;;;;5015743;28;20056;-87
2020/12/04 09:58:45;;;;;;;20.55;12.13;;;;;;;;;;5016782;28;20025;-91
2020/12/04 10:01:30;;;;;;;22.17;13.10;;;;;;;;;;5016933;28;20026;-83
2020/12/04 10:04:17;;;;;;;21.35;12.48;;;;;;;;;;5020056;28;20017;-89
2020/12/04 10:07:03;;;;;;;22.70;13.27;;;;;;;;;;5023328;28;20036;-90
2020/12/04 10:09:48;;;;;;;23.05;12.77;;;;;;;;;;5034175;28;20025;-89
2020/12/04 10:12:33;;;;;;;19.88;11.98;;;;;;;;;;5037270;28;20535;-89
2020/12/04 10:15:18;;;;;;;23.30;13.40;;;;;;;;;;5038900;28;20009;-91
2020/12/04 10:18:07;;;;;;;24.27;12.02;;;;;;;;;;5042135;28;20020;-91
2020/12/04 10:21:02;;;;;;;18.38;11.73;;;;;;;;;;5021078;28;20048;-92
2020/12/04 10:23:48;;;;;;;23.95;13.73;;;;;;;;;;5021120;28;20022;-91
2020/12/04 10:26:37;;;;;;;23.15;12.63;;;;;;;;;;5019456;28;20057;-86
2020/12/04 10:29:23;;;;;;;19.75;12.25;;;;;;;;;;5004359;28;20029;-90
2020/12/04 10:32:08;;;;;;;22.60;12.07;;;;;;;;;;5000593;28;20557;-88
2020/12/04 10:34:55;;;;;;;23.05;13.05;;;;;;;;;;5015939;28;20056;-86
2020/12/04 10:37:41;;;;;;;23.05;11.57;;;;;;;;;;5025274;28;20064;-90
2020/12/04 10:40:26;;;;;;;23.08;12.82;;;;;;;;;;5018431;28;20607;-90
2020/12/04 10:43:11;;;;;;;21.65;11.90;;;;;;;;;;5013537;28;20026;-86
2020/12/04 10:45:59;;;;;;;24.40;12.55;;;;;;;;;;5017654;28;20464;-90
2020/12/04 10:48:44;;;;;;;26.23;13.40;;;;;;;;;;5003128;28;20029;-88
2020/12/04 10:51:29;;;;;;;21.58;13.18;;;;;;;;;;5022330;28;20125;-89
2020/12/04 10:54:15;;;;;;;19.35;11.73;;;;;;;;;;5017091;28;20033;-90
2020/12/04 10:57:00;;;;;;;23.05;12.27;;;;;;;;;;5016230;28;20375;-90
2020/12/04 10:59:46;;;;;;;21.85;13.23;;;;;;;;;;5019436;28;20075;-91
2020/12/04 11:02:34;;;;;;;20.77;12.05;;;;;;;;;;5015916;28;20025;-91
2020/12/04 11:05:33;;;;;;;22.58;11.88;;;;;;;;;;5011909;28;20024;-90
2020/12/04 11:08:18;;;;;;;22.38;12.13;;;;;;;;;;5019244;28;20104;-91
2020/12/04 11:11:04;;;;;;;21.15;12.15;;;;;;;;;;5023174;28;20487;-91
2020/12/04 11:13:49;;;;;;;18.95;11.00;;;;;;;;;;5021559;28;20033;-91
2020/12/04 11:16:35;;;;;;;18.48;10.98;;;;;;;;;;5018516;28;20076;-90
2020/12/04 11:19:21;;;;;;;23.90;11.68;;;;;;;;;;5022844;28;20060;-90
2020/12/04 11:22:06;;;;;;;20.55;13.25;;;;;;;;;;5021441;28;20098;-88
2020/12/04 11:24:52;;;;;;;37.17;22.75;;;;;;;;;;5019856;28;20025;-90
2020/12/04 11:27:42;;;;;;;26.98;11.50;;;;;;;;;;5016999;28;20025;-86
2020/12/04 11:30:27;;;;;;;24.63;11.52;;;;;;;;;;5018677;28;20025;-86
2020/12/04 11:33:12;;;;;;;18.25;11.73;;;;;;;;;;5031129;28;20045;-85
2020/12/04 11:35:58;;;;;;;22.50;10.57;;;;;;;;;;5019436;28;20531;-82
2020/12/04 11:38:43;;;;;;;23.77;11.90;;;;;;;;;;5014440;28;20029;-84
2020/12/04 11:41:29;;;;;;;20.33;12.27;;;;;;;;;;5031619;28;20036;-85
2020/12/04 11:44:15;;;;;;;20.92;11.20;;;;;;;;;;5022165;28;20032;-86
2020/12/04 11:47:00;;;;;;;17.00;10.57;;;;;;;;;;5019102;28;20095;-86
2020/12/04 11:49:46;;;;;;;17.63;10.70;;;;;;;;;;5017962;28;20045;-85
2020/12/04 11:52:31;;;;;;;18.35;10.95;;;;;;;;;;5006316;28;20090;-85
2020/12/04 11:55:16;;;;;;;55.13;34.03;;;;;;;;;;5023068;28;20400;-83
2020/12/04 11:58:02;;;;;;;27.80;13.70;;;;;;;;;;5007916;28;20021;-89
2020/12/04 12:00:47;;;;;;;23.17;12.82;;;;;;;;;;5010071;28;20091;-88
2020/12/04 12:03:32;;;;;;;23.92;12.73;;;;;;;;;;5035135;28;20030;-91
2020/12/04 12:06:17;;;;;;;25.10;11.20;;;;;;;;;;5022449;28;20021;-90
2020/12/04 12:09:03;;;;;;;20.15;10.88;;;;;;;;;;5020471;28;20030;-87
2020/12/04 12:11:48;;;;;;;23.98;11.80;;;;;;;;;;5004534;28;20372;-86
2020/12/04 12:14:33;;;;;;;22.30;13.65;;;;;;;;;;5014540;28;20586;-87
2020/12/04 12:17:18;;;;;;;18.17;12.18;;;;;;;;;;5023443;28;20033;-87
2020/12/04 12:20:04;;;;;;;24.85;12.75;;;;;;;;;;5018731;28;20383;-87
2020/12/04 12:22:49;;;;;;;21.20;12.00;;;;;;;;;;5023656;28;20020;-87
2020/12/04 12:25:35;;;;;;;25.00;13.20;;;;;;;;;;5017872;28;20033;-86
2020/12/04 12:28:20;;;;;;;20.73;12.60;;;;;;;;;;5021038;28;20488;-87
2020/12/04 12:33:41;;;;;;;24.33;12.75;;;;;;;;;;5095517;23;20498;-87
2020/12/04 12:37:04;;;;;;;23.42;11.95;;;;;;;;;;5059054;28;20025;-85
2020/12/04 12:40:15;;;;;;;21.95;13.30;;;;;;;;;;4979400;28;20302;-86
2020/12/04 12:43:27;;;;;;;;;;;;;;;;;;;;;
2020/12/04 12:46:16;;;;;;;21.27;12.27;;;;;;;;;;4949066;28;20038;-87
2020/12/04 12:49:15;;;;;;;22.98;11.73;;;;;;;;;;4945106;28;21169;-92
2020/12/04 12:52:06;;;;;;;20.85;11.93;;;;;;;;;;5015136;28;20063;-89
2020/12/04 12:54:51;;;;;;;25.05;13.40;;;;;;;;;;5075149;28;20033;-90
2020/12/04 12:57:37;;;;;;;21.60;11.90;;;;;;;;;;5068493;28;20020;-88
2020/12/04 13:00:25;;;;;;;23.35;13.02;;;;;;;;;;5074370;28;20032;-87
2020/12/04 13:06:45;;;;;;;23.95;13.23;;;;;;;;;;5059019;28;20382;-87
2020/12/04 13:09:58;;;;;;;22.33;13.13;;;;;;;;;;5023454;28;20032;-90
2020/12/04 13:12:47;;;;;;;22.55;11.52;;;;;;;;;;5082547;28;20028;-88
2020/12/04 13:15:55;;;;;;;20.85;10.95;;;;;;;;;;5056718;28;20038;-85
2020/12/04 13:22:31;;;;;;;22.52;12.35;;;;;;;;;;4991420;28;20029;-86
2020/12/04 13:28:54;;;;;;;59.33;37.13;;;;;;;;;;5101638;28;20379;-86
2020/12/04 13:31:48;;;;;;;33.60;20.67;;;;;;;;;;5075498;28;20028;-90
2020/12/04 13:34:42;;;;;;;25.15;14.23;;;;;;;;;;5072150;28;20047;-88
2020/12/04 13:37:31;;;;;;;19.27;11.75;;;;;;;;;;5066500;28;20028;-89
2020/12/04 13:40:16;;;;;;;20.27;11.95;;;;;;;;;;5056640;28;20016;-88
2020/12/04 13:43:08;;;;;;;19.70;12.23;;;;;;;;;;5054476;28;20024;-88
2020/12/04 13:45:56;;;;;;;20.80;12.38;;;;;;;;;;5073386;28;20047;-87
2020/12/04 13:48:42;;;;;;;22.23;11.60;;;;;;;;;;5071440;28;20196;-85
2020/12/04 13:51:37;;;;;;;19.10;11.32;;;;;;;;;;5074533;28;20016;-85
2020/12/04 13:54:58;;;;;;;20.45;11.65;;;;;;;;;;5073296;28;20048;-84
2020/12/04 13:57:43;;;;;;;21.50;12.63;;;;;;;;;;5071685;28;20486;-87
2020/12/04 14:00:31;;;;;;;22.05;11.45;;;;;;;;;;5056824;28;20505;-83
2020/12/04 14:03:26;;;;;;;19.35;10.60;;;;;;;;;;5064462;28;20028;-85
2020/12/04 14:06:16;;;;;;;18.20;10.20;;;;;;;;;;5055376;28;20114;-85
2020/12/04 14:09:05;;;;;;;19.00;10.07;;;;;;;;;;5061405;28;20035;-86
2020/12/04 14:11:50;;;;;;;19.95;10.55;;;;;;;;;;5058330;28;20030;-86
2020/12/04 14:14:36;;;;;;;17.15;10.20;;;;;;;;;;5059408;28;20538;-85
2020/12/04 14:17:24;;;;;;;22.17;11.07;;;;;;;;;;5063338;28;20043;-86
2020/12/04 14:20:12;;;;;;;21.40;11.13;;;;;;;;;;5060165;28;20089;-86
2020/12/04 14:23:00;;;;;;;18.35;10.82;;;;;;;;;;5061209;28;20043;-84
2020/12/04 14:25:51;;;;;;;22.38;10.98;;;;;;;;;;5060396;28;20433;-84
2020/12/04 14:28:48;;;;;;;19.90;10.93;;;;;;;;;;5066828;28;20029;-85
2020/12/04 14:31:43;;;;;;;;;;;;;;;;;;5068495;28;20023;-85
2020/12/04 14:34:33;;;;;;;16.92;12.07;;;;;;;;;;5087064;28;19943;-85
2020/12/04 14:37:22;;;;;;;18.40;10.73;;;;;;;;;;5072472;28;20051;-85
2020/12/04 14:43:11;;;;;;;19.33;11.27;;;;;;;;;;5059147;28;20115;-84
2020/12/04 14:46:14;;;;;;;18.65;11.02;;;;;;;;;;5057889;28;20032;-86
2020/12/04 14:49:02;;;;;;;20.58;10.48;;;;;;;;;;5052775;28;20038;-90
2020/12/04 14:51:48;;;;;;;22.30;10.73;;;;;;;;;;5059110;28;20027;-88
2020/12/04 14:54:36;;;;;;;21.38;11.55;;;;;;;;;;5058321;28;20120;-92
2020/12/04 14:57:22;;;;;;;20.52;10.85;;;;;;;;;;5044633;28;20036;-85
2020/12/04 15:00:10;;;;;;;18.95;10.95;;;;;;;;;;5064138;28;20467;-90
2020/12/04 15:02:56;;;;;;;22.88;10.82;;;;;;;;;;5059319;28;20024;-89
2020/12/04 15:05:41;;;;;;;17.52;11.25;;;;;;;;;;5049660;28;20442;-91
2020/12/04 15:08:28;;;;;;;37.55;20.60;;;;;;;;;;5062225;28;20031;-90
2020/12/04 15:11:14;;;;;;;30.65;18.45;;;;;;;;;;5068929;28;20020;-89
2020/12/04 15:13:59;;;;;;;18.48;11.13;;;;;;;;;;5064869;28;20085;-88
2020/12/04 15:16:45;;;;;;;29.23;12.75;;;;;;;;;;5065508;28;20025;-84
2020/12/04 15:19:30;;;;;;;20.67;10.57;;;;;;;;;;5066656;28;20099;-87
2020/12/04 15:22:16;;;;;;;25.67;11.27;;;;;;;;;;5059367;28;20089;-85
2020/12/04 15:25:02;;;;;;;23.80;11.63;;;;;;;;;;5064845;28;20016;-83
2020/12/04 15:27:48;;;;;;;23.88;11.02;;;;;;;;;;5064192;28;20020;-84
2020/12/04 15:30:33;;;;;;;18.90;10.45;;;;;;;;;;5071999;28;20025;-82
2020/12/04 15:33:19;;;;;;;23.85;11.70;;;;;;;;;;5059042;28;20079;-85
2020/12/04 15:36:07;;;;;;;17.42;10.73;;;;;;;;;;5057413;28;20059;-85
2020/12/04 15:38:56;;;;;;;21.60;10.77;;;;;;;;;;5055181;28;20025;-87
2020/12/04 15:41:42;;;;;;;17.67;11.23;;;;;;;;;;5062606;28;20100;-87
2020/12/04 15:44:28;;;;;;;17.38;10.40;;;;;;;;;;5056867;28;20059;-87
2020/12/04 15:47:16;;;;;;;19.27;10.93;;;;;;;;;;5064449;28;20047;-85
2020/12/04 15:50:40;;;;;;;20.23;11.57;;;;;;;;;;5063250;28;20044;-86
2020/12/04 15:53:26;;;;;;;26.98;12.27;;;;;;;;;;4948217;28;20033;-88
2020/12/04 15:56:12;;;;;;;21.67;10.25;;;;;;;;;;4968163;28;20037;-83
2020/12/04 15:58:58;;;;;;;18.58;10.43;;;;;;;;;;5054316;28;20606;-84
2020/12/04 16:01:47;;;;;;;18.85;10.82;;;;;;;;;;5065323;28;20035;-87
2020/12/04 16:04:33;;;;;;;21.95;11.55;;;;;;;;;;5060890;28;20024;-87
2020/12/04 16:07:19;;;;;;;22.00;11.13;;;;;;;;;;5063133;28;20016;-87
2020/12/04 16:10:07;;;;;;;24.35;11.73;;;;;;;;;;5061014;28;20013;-86
2020/12/04 16:12:54;;;;;;;22.58;11.50;;;;;;;;;;5069814;28;20016;-90
2020/12/04 16:15:42;;;;;;;17.95;10.80;;;;;;;;;;5059466;28;20052;-89
2020/12/04 16:18:27;;;;;;;16.00;9.98;;;;;;;;;;5072893;28;20027;-86
2020/12/04 16:21:13;;;;;;;24.98;10.90;;;;;;;;;;5058378;28;20482;-88
2020/12/04 16:23:59;;;;;;;24.40;12.77;;;;;;;;;;5066130;28;20033;-77
2020/12/04 16:26:45;;;;;;;21.55;10.80;;;;;;;;;;5049784;28;20551;-77
2020/12/04 16:29:30;;;;;;;25.02;11.70;;;;;;;;;;5056871;28;20116;-77
2020/12/04 16:32:18;;;;;;;20.92;10.18;;;;;;;;;;5056000;28;20055;-77
2020/12/04 16:35:03;;;;;;;24.08;11.63;;;;;;;;;;5042611;28;20107;-89
2020/12/04 16:37:52;;;;;;;20.23;10.98;;;;;;;;;;5056033;28;20063;-89
2020/12/04 16:40:37;;;;;;;21.20;11.48;;;;;;;;;;5046078;28;20032;-91
2020/12/04 16:43:23;;;;;;;17.80;11.27;;;;;;;;;;5051016;28;20170;-88
2020/12/04 16:46:08;;;;;;;20.15;10.88;;;;;;;;;;5048915;28;20297;-87
2020/12/04 16:48:54;;;;;;;22.10;11.63;;;;;;;;;;5054048;28;20024;-86
2020/12/04 16:51:42;;;;;;;24.40;10.88;;;;;;;;;;5051858;28;20477;-88
2020/12/04 16:54:28;;;;;;;21.30;12.00;;;;;;;;;;5049936;28;20040;-87
2020/12/04 16:57:14;;;;;;;24.02;12.27;;;;;;;;;;5048664;28;20025;-87
2020/12/04 16:59:59;;;;;;;22.08;11.20;;;;;;;;;;5047989;28;20032;-88
2020/12/04 17:02:45;;;;;;;25.45;11.00;;;;;;;;;;5047839;28;20028;-88
2020/12/04 17:05:30;;;;;;;16.95;11.20;;;;;;;;;;5046110;28;20083;-89
2020/12/04 17:08:16;;;;;;;22.52;11.80;;;;;;;;;;5042772;28;20020;-88
2020/12/04 17:11:01;;;;;;;21.70;12.30;;;;;;;;;;5043525;28;20031;-88
2020/12/04 17:13:47;;;;;;;20.83;12.00;;;;;;;;;;5039124;28;20795;-87
2020/12/04 17:16:34;;;;;;;19.90;10.98;;;;;;;;;;5044613;28;20028;-85
2020/12/04 17:19:21;;;;;;;22.88;11.68;;;;;;;;;;5050854;28;20498;-89
2020/12/04 17:22:06;;;;;;;19.83;10.45;;;;;;;;;;5034459;28;20020;-89
2020/12/04 17:24:51;;;;;;;18.90;11.38;;;;;;;;;;5043045;28;20811;-90
2020/12/04 17:27:36;;;;;;;22.48;11.93;;;;;;;;;;5043509;28;20078;-89
2020/12/04 17:30:22;;;;;;;17.88;10.50;;;;;;;;;;5051172;28;20047;-90
2020/12/04 17:33:07;;;;;;;18.30;11.13;;;;;;;;;;5046131;28;20047;-88
2020/12/04 17:35:52;;;;;;;28.27;13.23;;;;;;;;;;5067281;28;20030;-88
2020/12/04 17:38:38;;;;;;;18.40;11.30;;;;;;;;;;5049114;28;20027;-89
2020/12/04 17:41:24;;;;;;;21.15;11.63;;;;;;;;;;5069494;28;20417;-88
2020/12/04 17:44:09;;;;;;;20.00;10.73;;;;;;;;;;5059517;28;20047;-88
2020/12/04 17:46:54;;;;;;;18.42;10.65;;;;;;;;;;5065661;28;20025;-88
2020/12/04 17:49:39;;;;;;;17.25;10.50;;;;;;;;;;5072246;28;20038;-89
2020/12/04 17:52:25;;;;;;;22.20;11.75;;;;;;;;;;5065269;28;20471;-89